createdAt,value
2018-12-27T00:00:45.742Z,99.99
2018-12-27T00:01:45.766Z,99.99
2018-12-27T00:02:45.802Z,99.99
2018-12-27T00:03:45.753Z,99.99
2018-12-27T00:04:45.763Z,99.99
2018-12-27T00:05:45.728Z,99.99
2018-12-27T00:06:45.759Z,99.99
2018-12-27T00:07:45.775Z,99.99
2018-12-27T00:08:45.795Z,99.99
2018-12-27T00:09:45.755Z,99.99
2018-12-27T00:10:45.784Z,99.99
2018-12-27T00:11:45.758Z,99.99
2018-12-27T00:12:45.741Z,99.99
2018-12-27T00:13:45.737Z,99.99
2018-12-27T00:14:45.820Z,99.99
2018-12-27T00:15:45.762Z,99.99
2018-12-27T00:16:45.786Z,99.99
2018-12-27T00:17:45.753Z,99.99
2018-12-27T00:18:45.798Z,99.99
2018-12-27T00:19:45.758Z,99.99
2018-12-27T00:20:45.763Z,99.99
2018-12-27T00:21:45.776Z,99.99
2018-12-27T00:22:45.762Z,99.99
2018-12-27T00:23:45.753Z,99.99
2018-12-27T00:24:45.838Z,99.99
2018-12-27T00:25:45.790Z,99.99
2018-12-27T00:26:45.774Z,99.99
2018-12-27T00:27:45.792Z,99.99
2018-12-27T00:28:45.800Z,99.99
2018-12-27T00:29:45.780Z,99.99
2018-12-27T00:30:45.822Z,99.99
2018-12-27T00:31:45.795Z,99.99
2018-12-27T00:32:45.776Z,99.99
2018-12-27T00:33:45.782Z,99.99
2018-12-27T00:34:45.816Z,99.99
2018-12-27T00:35:45.758Z,99.99
2018-12-27T00:36:46.112Z,99.99
2018-12-27T00:37:45.862Z,99.99
2018-12-27T00:38:45.776Z,99.99
2018-12-27T00:45:24.614Z,99.99
2018-12-27T00:46:24.609Z,99.99
2018-12-27T00:47:24.561Z,99.99
2018-12-27T00:48:24.659Z,99.99
2018-12-27T00:49:24.618Z,99.99
2018-12-27T00:50:24.627Z,99.99
2018-12-27T00:51:24.590Z,99.99
2018-12-27T00:52:24.660Z,99.99
2018-12-27T00:53:24.652Z,99.99
2018-12-27T00:54:24.572Z,99.99
2018-12-27T00:55:24.631Z,99.99
2018-12-27T00:56:24.601Z,99.99
2018-12-27T00:57:24.694Z,99.99
2018-12-27T00:58:24.625Z,99.99
2018-12-27T00:59:24.607Z,99.99
2018-12-27T01:00:24.562Z,99.99
2018-12-27T01:01:24.616Z,99.99
2018-12-27T01:02:24.598Z,99.99
2018-12-27T01:03:24.592Z,99.99
2018-12-27T01:04:24.623Z,99.99
2018-12-27T01:05:24.612Z,99.99
2018-12-27T01:06:24.619Z,99.99
2018-12-27T01:07:24.631Z,99.99
2018-12-27T01:08:24.680Z,99.99
2018-12-27T01:09:24.649Z,99.99
2018-12-27T01:10:24.596Z,99.99
2018-12-27T01:11:24.602Z,99.99
2018-12-27T01:12:24.628Z,99.99
2018-12-27T01:13:24.646Z,99.99
2018-12-27T01:14:24.655Z,99.99
2018-12-27T01:15:24.618Z,99.99
2018-12-27T01:16:24.636Z,99.99
2018-12-27T01:17:24.633Z,99.99
2018-12-27T01:18:24.611Z,99.99
2018-12-27T01:19:24.610Z,99.99
2018-12-27T01:20:24.662Z,99.99
2018-12-27T01:21:24.667Z,99.99
2018-12-27T01:22:24.631Z,99.99
2018-12-27T01:23:24.608Z,99.99
2018-12-27T01:24:24.642Z,99.99
2018-12-27T01:25:24.622Z,99.99
2018-12-27T01:36:23.551Z,99.99
2018-12-27T01:36:36.137Z,99.99
2018-12-27T01:37:36.184Z,99.99
2018-12-27T01:38:36.231Z,99.99
2018-12-27T01:39:36.181Z,99.99
2018-12-27T01:40:36.154Z,99.99
2018-12-27T01:41:36.160Z,99.99
2018-12-27T01:42:36.190Z,99.99
2018-12-27T01:43:36.213Z,99.99
2018-12-27T01:44:36.192Z,99.99
2018-12-27T01:45:36.174Z,99.99
2018-12-27T01:46:36.170Z,99.99
2018-12-27T01:47:36.216Z,99.99
2018-12-27T01:48:36.211Z,99.99
2018-12-27T01:49:36.211Z,99.99
2018-12-27T01:50:36.224Z,99.99
2018-12-27T01:51:36.174Z,99.99
2018-12-27T01:52:36.546Z,99.99
2018-12-27T01:53:36.245Z,99.99
2018-12-27T01:54:36.209Z,99.99
2018-12-27T01:55:36.158Z,99.99
2018-12-27T01:56:36.229Z,99.99
2018-12-27T01:57:36.227Z,99.99
2018-12-27T01:58:36.221Z,99.99
2018-12-27T01:59:36.170Z,99.99
2018-12-27T02:00:36.168Z,99.99
2018-12-27T02:08:01.799Z,99.99
2018-12-27T02:08:14.450Z,99.99
2018-12-27T02:09:14.418Z,99.99
2018-12-27T02:10:14.435Z,99.99
2018-12-27T02:11:14.435Z,99.99
2018-12-27T02:12:14.406Z,99.99
2018-12-27T02:13:14.417Z,99.99
2018-12-27T02:14:14.425Z,99.99
2018-12-27T02:15:14.429Z,99.99
2018-12-27T02:16:14.441Z,99.99
2018-12-27T02:17:14.408Z,99.99
2018-12-27T02:18:14.428Z,99.99
2018-12-27T02:22:43.091Z,99.99
2018-12-27T02:23:43.068Z,99.99
2018-12-27T02:24:43.094Z,99.99
2018-12-27T02:25:43.079Z,99.99
2018-12-27T02:26:43.086Z,99.99
2018-12-27T02:27:43.071Z,99.99
2018-12-27T02:28:43.127Z,99.99
2018-12-27T02:29:43.119Z,99.99
2018-12-27T02:30:43.107Z,99.99
2018-12-27T02:31:43.133Z,99.99
2018-12-27T02:32:43.104Z,99.99
2018-12-27T02:33:43.126Z,99.99
2018-12-27T02:34:43.057Z,99.99
2018-12-27T02:39:12.279Z,99.99
2018-12-27T02:40:12.302Z,99.99
2018-12-27T02:41:12.341Z,99.99
2018-12-27T02:42:12.283Z,99.99
2018-12-27T02:43:12.261Z,99.99
2018-12-27T02:44:12.297Z,99.99
2018-12-27T02:45:12.291Z,99.99
2018-12-27T02:49:41.970Z,99.99
2018-12-27T02:50:42.007Z,99.99
2018-12-27T02:51:41.936Z,99.99
2018-12-27T02:52:41.955Z,99.99
2018-12-27T02:53:41.995Z,99.99
2018-12-27T02:54:41.933Z,99.99
2018-12-27T02:55:41.972Z,99.99
2018-12-27T02:56:41.983Z,99.99
2018-12-27T02:57:41.944Z,99.99
2018-12-27T02:58:41.944Z,99.99
2018-12-27T02:59:41.952Z,99.99
2018-12-27T03:00:41.931Z,99.99
2018-12-27T03:01:41.983Z,99.99
2018-12-27T03:02:41.973Z,99.99
2018-12-27T03:03:46.942Z,99.99
2018-12-27T03:04:42.013Z,99.99
2018-12-27T03:05:41.965Z,99.99
2018-12-27T03:06:41.984Z,99.99
2018-12-27T03:07:41.964Z,99.99
2018-12-27T03:08:41.998Z,99.99
2018-12-27T03:09:41.989Z,99.99
2018-12-27T03:10:41.995Z,99.99
2018-12-27T03:11:41.947Z,99.99
2018-12-27T03:12:41.974Z,99.99
2018-12-27T03:13:41.951Z,99.99
2018-12-27T03:14:41.983Z,99.99
2018-12-27T03:19:11.582Z,99.99
2018-12-27T03:20:11.602Z,99.99
2018-12-27T03:21:11.611Z,99.99
2018-12-27T03:22:11.536Z,99.99
2018-12-27T03:23:11.554Z,99.99
2018-12-27T03:24:11.561Z,99.99
2018-12-27T03:25:11.524Z,99.99
2018-12-27T03:26:11.548Z,99.99
2018-12-27T03:27:11.668Z,99.99
2018-12-27T03:28:11.643Z,99.99
2018-12-27T03:29:11.578Z,99.99
2018-12-27T03:30:11.554Z,99.99
2018-12-27T03:31:11.547Z,99.99
2018-12-27T03:32:11.649Z,99.99
2018-12-27T03:33:11.641Z,99.99
2018-12-27T03:39:53.312Z,99.99
2018-12-27T03:40:53.266Z,99.99
2018-12-27T03:41:53.246Z,99.99
2018-12-27T03:42:53.230Z,99.99
2018-12-27T03:43:53.272Z,99.99
2018-12-27T03:44:53.264Z,99.99
2018-12-27T03:49:22.620Z,99.99
2018-12-27T03:50:22.541Z,99.99
2018-12-27T03:51:22.466Z,99.99
2018-12-27T03:52:22.450Z,99.99
2018-12-27T03:53:22.442Z,99.99
2018-12-27T03:54:22.460Z,99.99
2018-12-27T03:55:22.485Z,99.99
2018-12-27T03:56:22.489Z,99.99
2018-12-27T03:57:22.476Z,99.99
2018-12-27T03:58:22.521Z,99.99
2018-12-27T03:59:22.440Z,99.99
2018-12-27T04:00:22.460Z,99.99
2018-12-27T04:01:22.480Z,99.99
2018-12-27T04:02:22.462Z,99.99
2018-12-27T04:03:22.466Z,99.99
2018-12-27T04:04:22.488Z,99.99
2018-12-27T04:05:22.487Z,99.99
2018-12-27T04:09:52.936Z,99.99
2018-12-27T04:10:52.931Z,99.99
2018-12-27T04:11:52.900Z,99.99
2018-12-27T04:12:52.922Z,99.99
2018-12-27T04:17:23.342Z,99.99
2018-12-27T04:18:23.327Z,99.99
2018-12-27T04:19:23.333Z,99.99
2018-12-27T04:20:23.339Z,99.99
2018-12-27T04:21:23.371Z,99.99
2018-12-27T04:22:23.307Z,99.99
2018-12-27T04:23:23.460Z,99.99
2018-12-27T04:24:23.366Z,99.99
2018-12-27T04:25:23.324Z,99.99
2018-12-27T04:26:23.330Z,99.99
2018-12-27T04:27:23.387Z,99.99
2018-12-27T04:28:23.371Z,99.99
2018-12-27T04:29:23.390Z,99.99
2018-12-27T04:30:23.345Z,99.99
2018-12-27T04:31:23.323Z,99.99
2018-12-27T04:32:23.398Z,99.99
2018-12-27T04:33:23.362Z,99.99
2018-12-27T04:34:23.306Z,99.99
2018-12-27T04:35:23.338Z,99.99
2018-12-27T04:36:23.343Z,99.99
2018-12-27T04:37:23.363Z,99.99
2018-12-27T04:38:23.328Z,99.99
2018-12-27T04:39:23.346Z,99.99
2018-12-27T04:40:23.367Z,99.99
2018-12-27T04:41:23.350Z,99.99
2018-12-27T04:42:23.382Z,99.99
2018-12-27T04:43:23.361Z,99.99
2018-12-27T04:44:23.370Z,99.99
2018-12-27T04:45:23.352Z,99.99
2018-12-27T04:50:41.059Z,99.99
2018-12-27T04:50:53.722Z,99.99
2018-12-27T04:51:53.677Z,99.99
2018-12-27T04:52:53.822Z,99.99
2018-12-27T04:53:53.717Z,99.99
2018-12-27T04:54:53.683Z,99.99
2018-12-27T04:55:53.731Z,99.99
2018-12-27T04:56:53.695Z,99.99
2018-12-27T04:57:54.051Z,99.99
2018-12-27T04:58:54.429Z,99.99
2018-12-27T04:59:53.718Z,99.99
2018-12-27T05:00:53.721Z,99.99
2018-12-27T05:01:53.716Z,99.99
2018-12-27T05:02:53.734Z,99.99
2018-12-27T05:03:53.699Z,99.99
2018-12-27T05:04:53.751Z,99.99
2018-12-27T05:05:53.725Z,99.99
2018-12-27T05:06:53.733Z,99.99
2018-12-27T05:07:53.714Z,99.99
2018-12-27T05:08:53.726Z,99.99
2018-12-27T05:09:53.735Z,99.99
2018-12-27T05:10:53.744Z,99.99
2018-12-27T05:11:53.704Z,99.99
2018-12-27T05:12:53.735Z,99.99
2018-12-27T05:13:53.803Z,99.99
2018-12-27T05:14:53.750Z,99.99
2018-12-27T05:15:53.723Z,99.99
2018-12-27T05:16:53.732Z,99.99
2018-12-27T05:17:53.733Z,99.99
2018-12-27T05:18:53.727Z,99.99
2018-12-27T05:19:53.757Z,99.99
2018-12-27T05:20:53.749Z,99.99
2018-12-27T05:21:53.746Z,99.99
2018-12-27T05:22:53.752Z,99.99
2018-12-27T05:23:53.776Z,99.99
2018-12-27T05:24:53.724Z,99.99
2018-12-27T05:25:53.709Z,99.99
2018-12-27T05:26:53.744Z,99.99
2018-12-27T05:27:53.761Z,99.99
2018-12-27T05:28:53.779Z,99.99
2018-12-27T05:29:53.764Z,99.99
2018-12-27T05:30:53.743Z,99.99
2018-12-27T05:31:54.759Z,99.99
2018-12-27T05:32:53.737Z,99.99
2018-12-27T05:33:53.748Z,99.99
2018-12-27T05:34:53.768Z,99.99
2018-12-27T05:35:53.751Z,99.99
2018-12-27T05:36:55.150Z,99.99
2018-12-27T05:37:53.812Z,99.99
2018-12-27T05:38:53.745Z,99.99
2018-12-27T05:39:53.774Z,99.99
2018-12-27T05:40:53.782Z,99.99
2018-12-27T05:41:53.753Z,99.99
2018-12-27T05:42:54.165Z,99.99
2018-12-27T05:43:53.767Z,99.99
2018-12-27T05:44:53.771Z,99.99
2018-12-27T05:45:53.773Z,99.99
2018-12-27T05:46:53.807Z,99.99
2018-12-27T05:47:53.799Z,99.99
2018-12-27T05:48:53.756Z,99.99
2018-12-27T05:49:53.830Z,99.99
2018-12-27T05:50:53.795Z,99.99
2018-12-27T05:51:53.765Z,99.99
2018-12-27T05:52:53.800Z,99.99
2018-12-27T05:53:53.767Z,99.99
2018-12-27T05:54:53.781Z,99.99
2018-12-27T05:55:53.783Z,99.99
2018-12-27T05:56:53.772Z,99.99
2018-12-27T05:57:53.803Z,99.99
2018-12-27T05:58:53.785Z,99.99
2018-12-27T05:59:53.779Z,99.99
2018-12-27T06:00:53.811Z,99.99
2018-12-27T06:01:53.843Z,99.99
2018-12-27T06:02:53.771Z,99.99
2018-12-27T06:03:53.804Z,99.99
2018-12-27T06:04:53.825Z,99.99
2018-12-27T06:05:53.819Z,99.99
2018-12-27T06:06:53.826Z,99.99
2018-12-27T06:07:53.802Z,99.99
2018-12-27T06:08:53.801Z,99.99
2018-12-27T06:09:53.819Z,99.99
2018-12-27T06:10:53.840Z,99.99
2018-12-27T06:11:53.822Z,99.99
2018-12-27T06:12:53.840Z,99.99
2018-12-27T06:13:53.802Z,99.99
2018-12-27T06:14:53.789Z,99.99
2018-12-27T06:15:53.819Z,99.99
2018-12-27T06:16:53.829Z,99.99
2018-12-27T06:17:53.810Z,99.99
2018-12-27T06:18:53.817Z,99.99
2018-12-27T06:19:53.806Z,99.99
2018-12-27T06:20:53.851Z,99.99
2018-12-27T06:21:53.836Z,99.99
2018-12-27T06:22:53.843Z,99.99
2018-12-27T06:23:53.810Z,99.99
2018-12-27T06:24:53.866Z,99.99
2018-12-27T06:25:53.852Z,99.99
2018-12-27T06:26:53.814Z,99.99
2018-12-27T06:27:53.809Z,99.99
2018-12-27T06:28:53.834Z,99.99
2018-12-27T06:29:53.867Z,99.99
2018-12-27T06:30:53.842Z,99.99
2018-12-27T06:31:53.878Z,99.99
2018-12-27T06:32:53.842Z,99.99
2018-12-27T06:33:53.831Z,99.99
2018-12-27T06:34:53.856Z,99.99
2018-12-27T06:35:53.837Z,99.99
2018-12-27T06:36:53.845Z,99.99
2018-12-27T06:37:53.842Z,99.99
2018-12-27T06:38:53.898Z,99.99
2018-12-27T06:39:53.888Z,99.99
2018-12-27T06:40:53.848Z,99.99
2018-12-27T06:41:53.880Z,99.99
2018-12-27T06:42:53.851Z,99.99
2018-12-27T06:43:53.864Z,99.99
2018-12-27T06:44:53.873Z,99.99
2018-12-27T06:45:53.844Z,99.99
2018-12-27T06:46:53.863Z,99.99
2018-12-27T06:47:53.869Z,99.99
2018-12-27T06:48:53.850Z,99.99
2018-12-27T06:49:53.904Z,99.99
2018-12-27T06:50:53.886Z,99.99
2018-12-27T06:51:53.887Z,99.99
2018-12-27T06:52:54.186Z,99.99
2018-12-27T06:59:33.425Z,99.99
2018-12-27T07:00:33.408Z,99.99
2018-12-27T07:01:33.360Z,99.99
2018-12-27T07:02:33.392Z,99.99
2018-12-27T07:03:33.414Z,99.99
2018-12-27T07:04:33.413Z,99.99
2018-12-27T07:05:33.423Z,99.99
2018-12-27T07:06:33.385Z,99.99
2018-12-27T07:07:33.476Z,99.99
2018-12-27T07:08:33.501Z,99.99
2018-12-27T07:09:33.453Z,99.99
2018-12-27T07:10:33.680Z,99.99
2018-12-27T07:17:13.015Z,99.99
2018-12-27T07:18:12.998Z,99.99
2018-12-27T07:19:13.004Z,99.99
2018-12-27T07:20:12.984Z,99.99
2018-12-27T07:21:13.004Z,99.99
2018-12-27T07:22:13.030Z,99.99
2018-12-27T07:23:13.019Z,99.99
2018-12-27T07:24:12.996Z,99.99
2018-12-27T07:25:12.995Z,99.99
2018-12-27T07:26:12.999Z,99.99
2018-12-27T07:27:13.025Z,99.99
2018-12-27T07:28:13.013Z,99.99
2018-12-27T07:29:13.043Z,99.99
2018-12-27T07:30:13.025Z,99.99
2018-12-27T07:31:12.989Z,99.99
2018-12-27T07:32:13.055Z,99.99
2018-12-27T07:33:13.006Z,99.99
2018-12-27T07:34:13.017Z,99.99
2018-12-27T07:35:13.008Z,99.99
2018-12-27T07:36:13.040Z,99.99
2018-12-27T07:37:13.009Z,99.99
2018-12-27T07:38:13.025Z,99.99
2018-12-27T07:39:12.992Z,99.99
2018-12-27T07:40:12.991Z,99.99
2018-12-27T07:41:13.012Z,99.99
2018-12-27T07:42:13.042Z,99.99
2018-12-27T07:43:13.014Z,99.99
2018-12-27T07:44:13.006Z,99.99
2018-12-27T07:45:13.043Z,99.99
2018-12-27T07:49:41.862Z,99.99
2018-12-27T07:50:41.836Z,99.99
2018-12-27T07:51:41.850Z,99.99
2018-12-27T07:52:41.826Z,99.99
2018-12-27T07:53:41.852Z,99.99
2018-12-27T07:54:41.859Z,99.99
2018-12-27T07:55:41.863Z,99.99
2018-12-27T07:56:41.832Z,99.99
2018-12-27T07:57:41.817Z,99.99
2018-12-27T07:58:41.844Z,99.99
2018-12-27T07:59:41.827Z,99.99
2018-12-27T08:00:41.854Z,99.99
2018-12-27T08:01:41.858Z,99.99
2018-12-27T08:02:41.851Z,99.99
2018-12-27T08:03:41.870Z,99.99
2018-12-27T08:04:41.861Z,99.99
2018-12-27T08:05:41.813Z,99.99
2018-12-27T08:06:41.851Z,99.99
2018-12-27T08:07:41.859Z,99.99
2018-12-27T08:08:42.002Z,99.99
2018-12-27T08:09:41.852Z,99.99
2018-12-27T08:10:41.882Z,99.99
2018-12-27T08:11:41.865Z,99.99
2018-12-27T08:12:41.886Z,99.99
2018-12-27T08:13:41.883Z,99.99
2018-12-27T08:14:41.820Z,99.99
2018-12-27T08:15:41.859Z,99.99
2018-12-27T08:16:42.291Z,99.99
2018-12-27T08:17:41.879Z,99.99
2018-12-27T08:18:41.847Z,99.99
2018-12-27T08:19:41.872Z,99.99
2018-12-27T08:20:41.884Z,99.99
2018-12-27T08:21:41.866Z,99.99
2018-12-27T08:22:41.847Z,99.99
2018-12-27T08:23:41.881Z,99.99
2018-12-27T08:24:41.860Z,99.99
2018-12-27T08:25:41.893Z,99.99
2018-12-27T08:26:41.837Z,99.99
2018-12-27T08:27:41.858Z,99.99
2018-12-27T08:28:41.902Z,99.99
2018-12-27T08:29:41.897Z,99.99
2018-12-27T08:30:41.903Z,99.99
2018-12-27T08:31:41.895Z,99.99
2018-12-27T08:32:41.912Z,99.99
2018-12-27T08:33:41.886Z,99.99
2018-12-27T08:34:41.918Z,99.99
2018-12-27T08:35:41.895Z,99.99
2018-12-27T08:36:41.883Z,99.99
2018-12-27T08:37:41.879Z,99.99
2018-12-27T08:38:41.883Z,99.99
2018-12-27T08:39:41.911Z,99.99
2018-12-27T08:40:41.907Z,99.99
2018-12-27T08:41:41.918Z,99.99
2018-12-27T08:42:41.903Z,99.99
2018-12-27T08:43:41.874Z,99.99
2018-12-27T08:44:41.906Z,99.99
2018-12-27T08:45:42.212Z,99.99
2018-12-27T08:46:41.927Z,99.99
2018-12-27T08:47:42.059Z,99.99
2018-12-27T08:48:41.910Z,99.99
2018-12-27T08:49:41.964Z,99.99
2018-12-27T08:50:41.931Z,99.99
2018-12-27T08:55:58.552Z,99.99
2018-12-27T08:56:11.166Z,99.99
2018-12-27T08:57:11.228Z,99.99
2018-12-27T08:58:11.193Z,99.99
2018-12-27T08:59:11.133Z,99.99
2018-12-27T09:00:11.218Z,99.99
2018-12-27T09:01:11.170Z,99.99
2018-12-27T09:02:11.125Z,99.99
2018-12-27T09:03:11.166Z,99.99
2018-12-27T09:04:11.152Z,99.99
2018-12-27T09:05:11.213Z,99.99
2018-12-27T09:06:11.176Z,99.99
2018-12-27T09:07:11.190Z,99.99
2018-12-27T09:08:11.157Z,99.99
2018-12-27T09:09:11.135Z,99.99
2018-12-27T09:10:11.169Z,99.99
2018-12-27T09:11:11.219Z,99.99
2018-12-27T09:12:11.231Z,99.99
2018-12-27T09:13:11.222Z,99.99
2018-12-27T09:14:11.242Z,99.99
2018-12-27T09:15:11.252Z,99.99
2018-12-27T09:16:11.211Z,99.99
2018-12-27T09:17:11.214Z,99.99
2018-12-27T09:18:11.246Z,99.99
2018-12-27T09:19:11.146Z,99.99
2018-12-27T09:20:11.214Z,99.99
2018-12-27T09:21:11.329Z,99.99
2018-12-27T09:22:11.222Z,99.99
2018-12-27T09:23:11.155Z,99.99
2018-12-27T09:24:11.225Z,99.99
2018-12-27T09:25:11.183Z,99.99
2018-12-27T09:26:11.220Z,99.99
2018-12-27T09:27:11.216Z,99.99
2018-12-27T09:28:11.248Z,99.99
2018-12-27T09:29:11.292Z,99.99
2018-12-27T09:30:11.278Z,99.99
2018-12-27T09:31:11.255Z,99.99
2018-12-27T09:32:11.224Z,99.99
2018-12-27T09:33:11.194Z,99.99
2018-12-27T09:34:11.201Z,99.99
2018-12-27T09:35:11.192Z,99.99
2018-12-27T09:36:11.173Z,99.99
2018-12-27T09:37:11.228Z,99.99
2018-12-27T09:38:11.191Z,99.99
2018-12-27T09:39:11.913Z,99.99
2018-12-27T09:40:11.198Z,99.99
2018-12-27T09:41:11.193Z,99.99
2018-12-27T09:42:11.175Z,99.99
2018-12-27T09:43:11.175Z,99.99
2018-12-27T09:44:11.212Z,99.99
2018-12-27T09:45:11.305Z,99.99
2018-12-27T09:46:11.222Z,99.99
2018-12-27T09:47:11.255Z,99.99
2018-12-27T09:48:11.176Z,99.99
2018-12-27T09:49:11.293Z,99.99
2018-12-27T09:50:11.274Z,99.99
2018-12-27T09:51:11.210Z,99.99
2018-12-27T09:52:11.304Z,99.99
2018-12-27T09:53:11.216Z,99.99
2018-12-27T09:54:11.253Z,99.99
2018-12-27T09:55:11.334Z,99.99
2018-12-27T09:56:11.239Z,99.99
2018-12-27T09:57:11.234Z,99.99
2018-12-27T09:58:11.204Z,99.99
2018-12-27T09:59:11.233Z,99.99
2018-12-27T10:00:11.255Z,99.99
2018-12-27T10:01:11.286Z,99.99
2018-12-27T10:02:11.253Z,99.99
2018-12-27T10:03:11.257Z,99.99
2018-12-27T10:04:11.299Z,99.99
2018-12-27T10:05:11.252Z,99.99
2018-12-27T10:06:11.266Z,99.99
2018-12-27T10:07:11.196Z,99.99
2018-12-27T10:08:11.257Z,99.99
2018-12-27T10:09:11.237Z,99.99
2018-12-27T10:12:18.270Z,99.99
2018-12-27T10:12:30.995Z,99.99
2018-12-27T10:13:30.936Z,99.99
2018-12-27T10:14:30.929Z,99.99
2018-12-27T10:15:31.015Z,99.99
2018-12-27T10:16:30.937Z,99.99
2018-12-27T10:17:30.965Z,99.99
2018-12-27T10:18:30.979Z,99.99
2018-12-27T10:19:30.939Z,99.99
2018-12-27T10:20:30.969Z,99.99
2018-12-27T10:21:30.989Z,99.99
2018-12-27T10:22:30.948Z,99.99
2018-12-27T10:23:30.965Z,99.99
2018-12-27T10:24:30.928Z,99.99
2018-12-27T10:25:30.999Z,99.99
2018-12-27T10:26:31.031Z,99.99
2018-12-27T10:27:31.096Z,99.99
2018-12-27T10:28:30.973Z,99.99
2018-12-27T10:29:31.042Z,99.99
2018-12-27T10:30:30.995Z,99.99
2018-12-27T10:31:31.001Z,99.99
2018-12-27T10:32:30.969Z,99.99
2018-12-27T10:33:31.005Z,99.99
2018-12-27T10:34:30.966Z,99.99
2018-12-27T10:35:31.023Z,99.99
2018-12-27T10:36:31.011Z,99.99
2018-12-27T10:37:30.995Z,99.99
2018-12-27T10:38:30.998Z,99.99
2018-12-27T10:39:31.026Z,99.99
2018-12-27T10:40:30.996Z,99.99
2018-12-27T10:41:31.023Z,99.99
2018-12-27T10:42:31.000Z,99.99
2018-12-27T10:43:31.027Z,99.99
2018-12-27T10:44:30.990Z,99.99
2018-12-27T10:45:30.963Z,99.99
2018-12-27T10:46:31.014Z,99.99
2018-12-27T10:47:30.998Z,99.99
2018-12-27T10:48:31.077Z,99.99
2018-12-27T10:49:31.006Z,99.99
2018-12-27T10:50:30.989Z,99.99
2018-12-27T10:51:31.019Z,99.99
2018-12-27T10:52:31.001Z,99.91
2018-12-27T10:53:31.010Z,99.99
2018-12-27T10:54:31.026Z,99.82
2018-12-27T10:55:31.014Z,99.53
2018-12-27T10:56:31.044Z,99.44
2018-12-27T10:57:30.995Z,99.53
2018-12-27T10:58:31.031Z,98.96
2018-12-27T10:59:32.507Z,98.87
2018-12-27T11:00:31.054Z,98.96
2018-12-27T11:01:31.024Z,99.34
2018-12-27T11:02:31.008Z,99.34
2018-12-27T11:03:33.711Z,98.58
2018-12-27T11:04:31.122Z,98.87
2018-12-27T11:05:31.024Z,98.96
2018-12-27T11:06:31.094Z,98.68
2018-12-27T11:07:31.062Z,98.58
2018-12-27T11:08:31.072Z,98.68
2018-12-27T11:09:31.026Z,98.11
2018-12-27T11:10:31.023Z,98.3
2018-12-27T11:11:31.032Z,98.39
2018-12-27T11:12:31.073Z,98.11
2018-12-27T11:13:31.027Z,98.21
2018-12-27T11:14:31.045Z,98.11
2018-12-27T11:15:31.044Z,97.83
2018-12-27T11:16:31.048Z,98.02
2018-12-27T11:17:31.039Z,98.21
2018-12-27T11:18:31.554Z,98.02
2018-12-27T11:19:31.081Z,97.92
2018-12-27T11:20:31.099Z,97.92
2018-12-27T11:21:31.032Z,98.49
2018-12-27T11:22:31.048Z,98.3
2018-12-27T11:23:31.117Z,97.83
2018-12-27T11:24:31.079Z,98.02
2018-12-27T11:25:31.027Z,98.3
2018-12-27T11:26:31.051Z,98.49
2018-12-27T11:27:31.060Z,98.58
2018-12-27T11:28:31.076Z,98.58
2018-12-27T11:29:31.072Z,98.96
2018-12-27T11:30:31.109Z,98.58
2018-12-27T11:31:31.081Z,98.3
2018-12-27T11:32:31.089Z,98.3
2018-12-27T11:33:31.170Z,98.39
2018-12-27T11:34:31.107Z,97.92
2018-12-27T11:35:31.092Z,98.39
2018-12-27T11:36:31.080Z,97.92
2018-12-27T11:37:31.085Z,98.49
2018-12-27T11:38:31.069Z,98.49
2018-12-27T11:39:31.071Z,98.68
2018-12-27T11:40:31.087Z,98.49
2018-12-27T11:41:31.075Z,98.77
2018-12-27T11:42:35.340Z,98.49
2018-12-27T11:43:31.059Z,98.68
2018-12-27T11:44:31.134Z,98.77
2018-12-27T11:45:31.051Z,98.77
2018-12-27T11:46:31.093Z,98.77
2018-12-27T11:47:31.092Z,98.68
2018-12-27T11:48:31.145Z,98.77
2018-12-27T11:49:31.140Z,98.96
2018-12-27T11:50:32.057Z,98.58
2018-12-27T11:51:31.087Z,99.06
2018-12-27T11:52:31.098Z,98.96
2018-12-27T11:53:31.106Z,98.87
2018-12-27T11:54:31.209Z,98.96
2018-12-27T11:55:31.101Z,98.96
2018-12-27T11:56:31.087Z,99.06
2018-12-27T11:57:31.089Z,99.25
2018-12-27T11:58:31.084Z,99.44
2018-12-27T11:59:31.128Z,99.44
2018-12-27T12:00:31.123Z,98.87
2018-12-27T12:01:31.156Z,98.77
2018-12-27T12:02:34.414Z,98.77
2018-12-27T12:03:31.098Z,98.77
2018-12-27T12:04:31.134Z,98.68
2018-12-27T12:05:31.143Z,98.21
2018-12-27T12:06:31.108Z,98.02
2018-12-27T12:13:11.813Z,98.49
2018-12-27T12:14:11.748Z,98.3
2018-12-27T12:15:11.746Z,98.39
2018-12-27T12:16:11.705Z,98.49
2018-12-27T12:17:12.113Z,98.11
2018-12-27T12:18:11.777Z,98.58
2018-12-27T12:19:11.856Z,98.96
2018-12-27T12:20:11.748Z,98.49
2018-12-27T12:21:11.691Z,99.06
2018-12-27T12:22:11.830Z,98.77
2018-12-27T12:23:11.863Z,98.87
2018-12-27T12:24:11.842Z,98.11
2018-12-27T12:25:11.845Z,98.39
2018-12-27T12:26:11.814Z,98.3
2018-12-27T12:27:11.819Z,98.02
2018-12-27T12:28:11.824Z,99.06
2018-12-27T12:29:11.832Z,98.77
2018-12-27T12:30:11.738Z,98.77
2018-12-27T12:31:11.779Z,98.77
2018-12-27T12:32:11.701Z,98.39
2018-12-27T12:33:11.734Z,98.68
2018-12-27T12:34:11.708Z,98.02
2018-12-27T12:35:11.743Z,98.11
2018-12-27T12:36:13.824Z,98.39
2018-12-27T12:37:17.082Z,98.02
2018-12-27T12:38:11.800Z,97.92
2018-12-27T12:39:11.716Z,97.83
2018-12-27T12:40:11.785Z,98.11
2018-12-27T12:41:11.812Z,98.02
2018-12-27T12:42:11.826Z,97.92
2018-12-27T12:43:11.843Z,98.02
2018-12-27T12:44:11.830Z,98.11
2018-12-27T12:45:12.041Z,98.21
2018-12-27T12:46:11.985Z,98.02
2018-12-27T12:47:11.951Z,98.3
2018-12-27T12:48:12.005Z,98.02
2018-12-27T12:49:11.765Z,97.83
2018-12-27T12:50:11.778Z,98.11
2018-12-27T12:51:11.723Z,98.21
2018-12-27T12:52:11.797Z,97.83
2018-12-27T12:53:12.256Z,97.73
2018-12-27T12:54:11.834Z,97.92
2018-12-27T12:55:11.866Z,97.92
2018-12-27T12:56:11.894Z,98.02
2018-12-27T12:57:11.772Z,97.83
2018-12-27T12:58:11.796Z,98.21
2018-12-27T12:59:11.763Z,98.3
2018-12-27T13:00:11.910Z,97.83
2018-12-27T13:01:11.945Z,97.92
2018-12-27T13:02:11.939Z,98.02
2018-12-27T13:03:11.828Z,97.92
2018-12-27T13:04:11.833Z,97.83
2018-12-27T13:05:11.776Z,98.11
2018-12-27T13:06:17.769Z,98.11
2018-12-27T13:07:11.752Z,97.92
2018-12-27T13:08:11.805Z,97.92
2018-12-27T13:09:11.875Z,98.21
2018-12-27T13:10:11.818Z,98.11
2018-12-27T13:11:11.791Z,98.02
2018-12-27T13:12:11.770Z,97.92
2018-12-27T13:13:11.763Z,98.39
2018-12-27T13:14:11.766Z,97.92
2018-12-27T13:15:11.815Z,98.11
2018-12-27T13:16:11.756Z,98.21
2018-12-27T13:17:11.854Z,98.11
2018-12-27T13:18:11.806Z,98.02
2018-12-27T13:19:11.767Z,98.11
2018-12-27T13:20:11.836Z,97.92
2018-12-27T13:21:11.776Z,97.92
2018-12-27T13:22:11.836Z,97.83
2018-12-27T13:23:12.866Z,98.39
2018-12-27T13:24:11.788Z,98.11
2018-12-27T13:25:11.815Z,98.44
2018-12-27T13:26:11.814Z,97.64
2018-12-27T13:27:11.816Z,97.45
2018-12-27T13:28:11.932Z,98.3
2018-12-27T13:29:11.842Z,97.12
2018-12-27T13:30:11.920Z,97.35
2018-12-27T13:31:22.178Z,97.59
2018-12-27T13:32:11.812Z,97.35
2018-12-27T13:33:11.827Z,97.92
2018-12-27T13:34:11.816Z,97.97
2018-12-27T13:35:11.865Z,97.78
2018-12-27T13:36:11.844Z,98.16
2018-12-27T13:37:11.834Z,97.97
2018-12-27T13:38:11.827Z,98.07
2018-12-27T13:39:11.824Z,97.78
2018-12-27T13:40:11.847Z,97.88
2018-12-27T13:41:11.887Z,98.44
2018-12-27T13:42:11.830Z,98.63
2018-12-27T13:43:21.795Z,99.3
2018-12-27T13:44:11.873Z,98.82
2018-12-27T13:45:11.837Z,98.92
2018-12-27T13:46:11.846Z,98.44
2018-12-27T13:47:11.872Z,97.88
2018-12-27T13:48:11.864Z,97.97
2018-12-27T13:49:11.852Z,97.97
2018-12-27T13:50:11.877Z,98.16
2018-12-27T13:51:11.842Z,98.16
2018-12-27T13:52:11.807Z,97.59
2018-12-27T13:53:11.835Z,97.69
2018-12-27T13:54:11.873Z,97.5
2018-12-27T13:55:11.856Z,97.69
2018-12-27T13:56:11.853Z,97.5
2018-12-27T13:57:11.853Z,97.59
2018-12-27T13:58:11.849Z,96.92
2018-12-27T13:59:11.889Z,97.12
2018-12-27T14:00:11.904Z,96.92
2018-12-27T14:01:11.881Z,96.83
2018-12-27T14:02:11.857Z,97.02
2018-12-27T14:03:11.859Z,96.92
2018-12-27T14:04:11.847Z,96.92
2018-12-27T14:05:11.853Z,96.92
2018-12-27T14:06:11.924Z,96.83
2018-12-27T14:07:11.869Z,97.31
2018-12-27T14:08:11.861Z,96.92
2018-12-27T14:09:11.881Z,97.4
2018-12-27T14:10:11.942Z,97.5
2018-12-27T14:11:11.870Z,97.59
2018-12-27T14:12:11.876Z,97.12
2018-12-27T14:13:11.858Z,98.16